Time;durP1;ratioP1;P1;durP2;ratioP2;P2;SDS_P1;SDS_P2;PMS_P1;PMS_P2;Temp;Humidity;BMP_temperature;BMP_pressure;BME280_temperature;BME280_humidity;BME280_pressure;Samples;Min_cycle;Max_cycle;Signal;HPM_P1;HPM_P2
2023/09/05 00:02:00;;;;;;;3.13;2.67;;;;;;;18.89;82.30;102359.44;6195092;28;20244;-65
2023/09/05 00:05:22;;;;;;;2.55;2.35;;;;;;;18.94;82.25;102361.72;6198088;28;21364;-67
2023/09/05 00:08:43;;;;;;;3.80;3.13;;;;;;;18.91;81.92;102357.41;6195158;28;20233;-65
2023/09/05 00:12:04;;;;;;;3.38;2.35;;;;;;;18.71;82.55;102352.22;6190374;28;20245;-65
2023/09/05 00:15:25;;;;;;;3.67;3.08;;;;;;;18.83;82.49;102351.00;6197507;28;20237;-66
2023/09/05 00:18:48;;;;;;;4.47;3.33;;;;;;;18.79;82.66;102347.72;6195354;28;20236;-66
2023/09/05 00:22:09;;;;;;;3.33;2.75;;;;;;;18.66;82.45;102349.94;6194529;28;20233;-66
2023/09/05 00:25:29;;;;;;;2.15;2.03;;;;;;;18.70;82.71;102345.88;6202170;28;20233;-65
2023/09/05 00:28:50;;;;;;;3.08;2.78;;;;;;;18.66;82.92;102343.63;6197872;28;20237;-65
2023/09/05 00:32:13;;;;;;;2.47;2.28;;;;;;;18.67;82.90;102339.88;6194724;28;20241;-65
2023/09/05 00:35:36;;;;;;;3.35;2.85;;;;;;;18.58;82.93;102338.06;6200044;28;20252;-65
2023/09/05 00:38:57;;;;;;;3.22;2.92;;;;;;;18.68;83.09;102338.84;6198513;28;20265;-64
2023/09/05 00:42:18;;;;;;;2.30;2.10;;;;;;;18.40;83.05;102332.50;6180214;28;20287;-64
2023/09/05 00:45:46;;;;;;;2.35;2.15;;;;;;;18.30;83.87;102328.94;6189364;28;20245;-66
2023/09/05 00:49:10;;;;;;;1.88;1.77;;;;;;;18.30;83.78;102329.81;6194899;28;20232;-66
2023/09/05 00:52:33;;;;;;;2.90;2.70;;;;;;;18.21;84.48;102335.34;6195740;28;20233;-65
2023/09/05 00:55:54;;;;;;;4.35;2.45;;;;;;;17.96;85.59;102323.19;6176825;28;20743;-65
2023/09/05 00:59:16;;;;;;;2.03;1.92;;;;;;;18.23;85.66;102325.13;6189999;28;20233;-65
2023/09/05 01:02:37;;;;;;;2.15;1.95;;;;;;;18.46;84.84;102314.69;6202016;28;21333;-66
2023/09/05 01:06:07;;;;;;;2.35;2.25;;;;;;;18.44;84.06;102325.75;6186767;28;20240;-65
2023/09/05 01:09:37;;;;;;;2.42;2.22;;;;;;;18.31;84.25;102320.59;6186537;28;20240;-65
2023/09/05 01:12:59;;;;;;;1.90;1.80;;;;;;;18.48;84.29;102324.47;6188593;28;20233;-65
2023/09/05 01:16:20;;;;;;;2.88;2.55;;;;;;;18.43;84.31;102314.94;6175592;28;20316;-65
2023/09/05 01:19:42;;;;;;;3.08;2.25;;;;;;;18.32;84.19;102310.56;6175185;28;20236;-65
2023/09/05 01:23:13;;;;;;;3.65;2.40;;;;;;;18.41;84.26;102312.38;6193518;28;20241;-66
2023/09/05 01:26:36;;;;;;;3.33;2.70;;;;;;;18.42;84.27;102319.53;6184347;28;20240;-65
2023/09/05 01:29:58;;;;;;;3.00;2.70;;;;;;;18.35;84.00;102313.84;6203410;28;20233;-66
2023/09/05 01:33:19;;;;;;;4.00;2.20;;;;;;;18.34;84.03;102303.06;6191363;28;20963;-66
2023/09/05 01:36:40;;;;;;;2.83;2.63;;;;;;;18.25;84.40;102298.53;6196880;28;20264;-66
2023/09/05 01:40:01;;;;;;;2.53;2.33;;;;;;;18.28;84.56;102292.75;6193417;28;20225;-66
2023/09/05 01:43:23;;;;;;;2.22;2.05;;;;;;;18.23;85.13;102287.75;6194946;28;20236;-65
2023/09/05 01:46:44;;;;;;;2.25;2.10;;;;;;;18.14;84.84;102287.78;6193035;28;20224;-66
2023/09/05 01:50:06;;;;;;;2.60;2.40;;;;;;;18.10;85.21;102291.84;6191431;28;20295;-65
2023/09/05 01:53:26;;;;;;;2.58;2.30;;;;;;;18.11;85.17;102285.34;6192600;28;20612;-66
2023/09/05 01:56:47;;;;;;;5.07;2.83;;;;;;;18.10;85.30;102291.84;6208272;28;20229;-66
2023/09/05 02:00:12;;;;;;;3.50;2.40;;;;;;;17.91;85.63;102290.06;6193212;28;20237;-66
2023/09/05 02:03:36;;;;;;;2.15;2.00;;;;;;;17.79;85.96;102287.66;6189531;28;20917;-65
2023/09/05 02:06:57;;;;;;;3.13;2.70;;;;;;;17.88;86.23;102284.00;6196013;28;20532;-64
2023/09/05 02:10:19;;;;;;;2.00;1.90;;;;;;;17.86;86.30;102286.91;6192265;28;20228;-66
2023/09/05 02:13:40;;;;;;;3.13;2.88;;;;;;;17.85;86.48;102289.78;6189242;28;20237;-64
2023/09/05 02:17:02;;;;;;;2.85;2.65;;;;;;;17.68;87.07;102291.41;6196428;28;20229;-65
2023/09/05 02:20:23;;;;;;;3.45;3.15;;;;;;;17.79;86.77;102295.84;6197006;28;20256;-66
2023/09/05 02:23:44;;;;;;;2.22;2.13;;;;;;;17.80;86.42;102294.81;6188988;28;21647;-65
2023/09/05 02:27:05;;;;;;;2.58;2.35;;;;;;;17.74;86.67;102292.69;6199328;28;20233;-66
2023/09/05 02:30:26;;;;;;;2.50;2.30;;;;;;;17.69;87.03;102282.19;6212252;28;20237;-66
2023/09/05 02:33:49;;;;;;;2.67;2.22;;;;;;;17.61;86.67;102287.53;6203276;28;20320;-66
2023/09/05 02:37:10;;;;;;;4.00;2.55;;;;;;;17.67;86.89;102281.50;6198246;28;20229;-67
2023/09/05 02:40:31;;;;;;;2.25;2.00;;;;;;;17.67;86.97;102277.94;6196246;28;20237;-65
2023/09/05 02:43:52;;;;;;;4.90;3.42;;;;;;;17.63;86.97;102281.97;6186155;28;20233;-65
2023/09/05 02:47:13;;;;;;;2.08;1.90;;;;;;;17.69;86.78;102276.75;6194734;28;20253;-65
2023/09/05 02:50:35;;;;;;;2.20;2.00;;;;;;;17.62;86.70;102266.59;6196548;28;20229;-65
2023/09/05 02:53:59;;;;;;;1.70;1.60;;;;;;;17.63;86.81;102271.88;6198067;28;20229;-65
2023/09/05 02:57:19;;;;;;;3.05;2.30;;;;;;;17.62;86.86;102272.03;6174757;28;20237;-65
2023/09/05 03:00:40;;;;;;;2.30;2.10;;;;;;;17.54;87.51;102268.16;6175623;28;20233;-66
2023/09/05 03:04:01;;;;;;;4.28;2.30;;;;;;;17.55;87.54;102274.50;6202228;28;20229;-65
2023/09/05 03:07:24;;;;;;;2.20;2.00;;;;;;;17.46;88.16;102261.69;6206250;28;20260;-65
2023/09/05 03:10:49;;;;;;;2.13;1.95;;;;;;;17.51;87.96;102252.13;6187728;28;20552;-66
2023/09/05 03:14:10;;;;;;;3.55;2.55;;;;;;;17.53;88.09;102252.84;6193148;28;20320;-66
2023/09/05 03:17:32;;;;;;;3.78;2.58;;;;;;;17.56;87.89;102249.78;6196533;28;20619;-65
2023/09/05 03:20:53;;;;;;;2.33;2.13;;;;;;;17.53;87.99;102250.09;6208273;28;20226;-65
2023/09/05 03:24:17;;;;;;;2.55;2.35;;;;;;;17.53;87.97;102246.50;6200123;28;21412;-65
2023/09/05 03:27:39;;;;;;;4.70;4.30;;;;;;;17.50;87.82;102246.81;6210088;28;22530;-64
2023/09/05 03:31:01;;;;;;;8.20;7.05;;;;;;;17.45;87.61;102246.34;6209381;28;20241;-65
2023/09/05 03:34:22;;;;;;;7.65;6.85;;;;;;;17.31;88.32;102244.94;6196068;28;20237;-65
2023/09/05 03:37:43;;;;;;;4.70;4.25;;;;;;;17.30;88.75;102245.09;6199220;28;20260;-66
2023/09/05 03:41:05;;;;;;;6.72;3.42;;;;;;;17.36;88.74;102250.81;6196523;28;20233;-65
2023/09/05 03:44:26;;;;;;;5.00;4.50;;;;;;;17.42;88.87;102249.38;6197977;28;20241;-64
2023/09/05 03:47:47;;;;;;;9.20;8.32;;;;;;;17.39;88.55;102236.03;6178369;28;20551;-65
2023/09/05 03:51:08;;;;;;;6.60;6.00;;;;;;;17.36;88.51;102244.50;6193254;28;20237;-65
2023/09/05 03:54:29;;;;;;;4.55;4.05;;;;;;;17.33;88.33;102242.97;6190947;28;20613;-66
2023/09/05 03:57:51;;;;;;;4.20;3.80;;;;;;;17.27;88.51;102243.50;6194297;28;20237;-65
2023/09/05 04:01:15;;;;;;;3.03;2.72;;;;;;;17.29;88.51;102244.22;6204109;28;20324;-66
2023/09/05 04:04:37;;;;;;;4.05;3.10;;;;;;;17.21;88.54;102241.38;6193635;28;20225;-67
2023/09/05 04:07:57;;;;;;;3.97;3.63;;;;;;;17.20;88.85;102236.94;6209762;28;20237;-65
2023/09/05 04:11:18;;;;;;;5.40;3.63;;;;;;;17.22;89.27;102234.94;6159325;28;20233;-65
2023/09/05 04:14:40;;;;;;;3.22;2.92;;;;;;;17.19;88.89;102226.19;6193239;28;20237;-64
2023/09/05 04:18:01;;;;;;;2.50;2.30;;;;;;;17.24;88.77;102229.31;6200418;28;20245;-65
2023/09/05 04:21:23;;;;;;;8.98;8.13;;;;;;;17.20;88.98;102228.75;6194385;28;20241;-64
2023/09/05 04:24:44;;;;;;;6.93;6.25;;;;;;;17.14;89.10;102240.25;6176731;28;20230;-65
2023/09/05 04:28:06;;;;;;;8.75;8.00;;;;;;;17.16;88.86;102238.25;6208128;28;20323;-66
2023/09/05 04:31:28;;;;;;;6.65;5.60;;;;;;;17.17;89.08;102236.34;6208975;28;20234;-65
2023/09/05 04:34:50;;;;;;;4.85;4.35;;;;;;;17.20;88.98;102245.13;6188777;28;20241;-65
2023/09/05 04:38:11;;;;;;;6.10;5.50;;;;;;;17.14;88.95;102236.66;6209715;28;20670;-66
2023/09/05 04:41:33;;;;;;;7.20;6.35;;;;;;;16.99;89.12;102238.09;6195443;28;20233;-65
2023/09/05 04:44:54;;;;;;;7.38;6.60;;;;;;;16.92;89.45;102229.63;6201723;28;20583;-66
2023/09/05 04:48:16;;;;;;;6.05;5.53;;;;;;;17.05;89.44;102227.50;6189510;28;20237;-64
2023/09/05 04:51:37;;;;;;;6.85;4.38;;;;;;;17.16;89.36;102227.34;6186768;28;20320;-66
2023/09/05 04:55:00;;;;;;;3.72;3.35;;;;;;;17.06;88.97;102226.50;6183800;28;20229;-66
2023/09/05 04:58:21;;;;;;;4.25;2.78;;;;;;;17.05;89.54;102234.78;6193020;28;20228;-67
2023/09/05 05:01:42;;;;;;;7.93;7.22;;;;;;;17.03;89.43;102234.94;6186603;28;20229;-67
2023/09/05 05:05:04;;;;;;;11.43;10.10;;;;;;;17.09;89.30;102236.22;6193052;28;20250;-67
2023/09/05 05:08:25;;;;;;;8.57;7.72;;;;;;;17.03;89.52;102242.25;6196587;28;20801;-67
2023/09/05 05:11:47;;;;;;;5.20;4.55;;;;;;;17.09;89.40;102237.09;6197726;28;20248;-68
2023/09/05 05:15:08;;;;;;;12.93;11.65;;;;;;;17.04;89.60;102233.97;6196740;28;20599;-67
2023/09/05 05:18:29;;;;;;;8.82;7.22;;;;;;;17.09;89.34;102230.78;6196666;28;20225;-67
2023/09/05 05:21:52;;;;;;;9.77;6.90;;;;;;;17.08;89.34;102229.94;6199338;28;20336;-67
2023/09/05 05:25:13;;;;;;;6.38;5.40;;;;;;;17.20;89.06;102223.31;6192085;28;20233;-68
2023/09/05 05:28:34;;;;;;;6.47;5.43;;;;;;;17.29;88.89;102227.03;6197136;28;20320;-68
2023/09/05 05:31:55;;;;;;;4.15;3.67;;;;;;;17.28;88.72;102217.13;6198339;28;20247;-67
2023/09/05 05:35:15;;;;;;;6.28;5.25;;;;;;;17.29;88.97;102227.03;6193762;28;20340;-67
2023/09/05 05:38:38;;;;;;;8.35;4.60;;;;;;;17.33;89.16;102231.19;6193596;28;20230;-67
2023/09/05 05:41:59;;;;;;;8.18;3.80;;;;;;;17.35;89.21;102235.50;6197808;28;20221;-68
2023/09/05 05:45:19;;;;;;;5.93;4.82;;;;;;;17.48;88.91;102233.28;6195031;28;20257;-68
2023/09/05 05:48:41;;;;;;;5.30;4.05;;;;;;;17.61;88.62;102229.44;6203179;28;20241;-66
2023/09/05 05:52:04;;;;;;;7.30;3.88;;;;;;;17.49;88.91;102229.59;6197262;28;20229;-68
2023/09/05 05:55:27;;;;;;;4.50;3.38;;;;;;;17.63;88.33;102224.69;6200821;28;20249;-67
2023/09/05 05:58:48;;;;;;;5.22;3.00;;;;;;;17.64;89.00;102226.38;6202716;28;20334;-68
2023/09/05 06:02:09;;;;;;;4.18;3.55;;;;;;;17.68;88.83;102225.94;6196613;28;20241;-67
2023/09/05 06:05:30;;;;;;;15.63;7.47;;;;;;;17.89;88.45;102223.84;6200701;28;20505;-68
2023/09/05 06:08:51;;;;;;;3.65;3.35;;;;;;;17.69;88.57;102213.16;6203156;28;20233;-68
2023/09/05 06:12:13;;;;;;;4.00;3.47;;;;;;;17.74;89.12;102216.28;6200826;28;20367;-67
2023/09/05 06:15:35;;;;;;;4.68;3.88;;;;;;;17.91;88.68;102218.22;6203216;28;20320;-67
2023/09/05 06:18:57;;;;;;;4.13;3.45;;;;;;;17.95;88.33;102217.78;6199074;28;20626;-68
2023/09/05 06:22:18;;;;;;;7.10;5.10;;;;;;;18.27;87.67;102214.59;6199474;28;20718;-68
2023/09/05 06:25:39;;;;;;;4.72;3.30;;;;;;;18.19;87.04;102209.88;6198233;28;20237;-66
2023/09/05 06:29:02;;;;;;;4.10;3.63;;;;;;;18.20;87.49;102214.34;6197888;28;20233;-68
2023/09/05 06:32:22;;;;;;;4.72;3.42;;;;;;;18.55;86.58;102204.50;6194882;28;20320;-67
2023/09/05 06:35:43;;;;;;;3.45;3.15;;;;;;;18.78;85.39;102200.28;6199164;28;20631;-68
2023/09/05 06:39:05;;;;;;;3.78;3.08;;;;;;;18.89;84.72;102209.13;6203481;28;20816;-67
2023/09/05 06:42:26;;;;;;;5.55;2.95;;;;;;;18.68;84.73;102205.84;6202262;28;20566;-67
2023/09/05 06:45:48;;;;;;;3.67;3.33;;;;;;;18.96;84.12;102204.72;6199290;28;20361;-67
2023/09/05 06:49:09;;;;;;;3.63;2.90;;;;;;;18.97;83.51;102206.44;6201142;28;20236;-68
2023/09/05 06:52:30;;;;;;;5.05;4.40;;;;;;;19.07;83.88;102207.22;6207028;28;20249;-68
2023/09/05 06:55:51;;;;;;;13.18;9.68;;;;;;;19.34;83.43;102214.44;6202831;28;20241;-69
2023/09/05 06:59:17;;;;;;;3.80;3.30;;;;;;;19.32;82.80;102212.84;6200639;28;20233;-68
2023/09/05 07:02:40;;;;;;;5.35;4.25;;;;;;;19.50;82.59;102219.19;6200288;28;20250;-67
2023/09/05 07:06:03;;;;;;;3.65;3.35;;;;;;;19.66;81.70;102211.06;6203275;28;20245;-68
2023/09/05 07:09:24;;;;;;;6.07;3.72;;;;;;;19.77;80.87;102222.59;6203882;28;20321;-67
2023/09/05 07:12:45;;;;;;;5.82;3.42;;;;;;;19.87;80.19;102217.88;6198401;28;20232;-68
2023/09/05 07:16:06;;;;;;;4.95;3.40;;;;;;;19.85;79.59;102216.31;6198198;28;20234;-67
2023/09/05 07:19:29;;;;;;;3.00;2.78;;;;;;;19.91;79.42;102222.00;6204455;28;20804;-68
2023/09/05 07:22:50;;;;;;;9.55;7.07;;;;;;;20.20;78.66;102221.63;6206646;28;20233;-67
2023/09/05 07:26:11;;;;;;;10.23;7.28;;;;;;;20.36;78.21;102223.56;6201792;28;20233;-67
2023/09/05 07:29:33;;;;;;;5.63;4.75;;;;;;;20.50;77.19;102215.56;6201846;28;20252;-67
2023/09/05 07:32:54;;;;;;;3.67;3.17;;;;;;;20.60;76.95;102219.00;6200530;28;20595;-66
2023/09/05 07:36:16;;;;;;;3.72;3.42;;;;;;;20.46;77.21;102218.78;6200790;28;20242;-67
2023/09/05 07:39:36;;;;;;;4.15;3.78;;;;;;;20.78;76.77;102218.81;6197559;28;20241;-68
2023/09/05 07:43:00;;;;;;;2.92;2.72;;;;;;;20.44;76.27;102212.63;6204358;28;20765;-67
2023/09/05 07:46:21;;;;;;;4.75;4.20;;;;;;;20.61;76.10;102217.13;6196504;28;20237;-67
2023/09/05 07:49:42;;;;;;;5.82;4.07;;;;;;;21.03;75.13;102212.38;6196996;28;20245;-68
2023/09/05 07:53:04;;;;;;;3.85;3.55;;;;;;;20.45;76.50;102209.72;6200573;28;20572;-67
2023/09/05 07:56:26;;;;;;;3.42;3.08;;;;;;;21.06;75.65;102205.69;6202037;28;20229;-67
2023/09/05 07:59:47;;;;;;;3.78;3.40;;;;;;;21.08;74.66;102206.38;6183124;28;20241;-67
2023/09/05 08:03:08;;;;;;;3.97;2.33;;;;;;;20.90;74.86;102201.03;6198102;28;20237;-67
2023/09/05 08:06:29;;;;;;;3.30;3.00;;;;;;;21.22;74.14;102203.78;6197724;28;20611;-68
2023/09/05 08:09:51;;;;;;;5.68;3.78;;;;;;;21.63;73.72;102203.72;6189830;28;20352;-68
2023/09/05 08:13:13;;;;;;;3.70;3.08;;;;;;;21.72;72.51;102200.75;6194923;28;20233;-67
2023/09/05 08:16:34;;;;;;;4.38;3.40;;;;;;;21.35;73.11;102203.25;6193404;28;20229;-68
2023/09/05 08:19:56;;;;;;;5.00;2.75;;;;;;;21.05;73.94;102202.06;6186494;28;20796;-67
2023/09/05 08:23:16;;;;;;;3.40;2.70;;;;;;;21.18;73.90;102209.78;6186036;28;20233;-67
2023/09/05 08:26:39;;;;;;;4.18;3.15;;;;;;;21.44;73.55;102216.78;6189043;28;20241;-68
2023/09/05 08:29:59;;;;;;;3.88;3.08;;;;;;;21.64;72.42;102213.66;6196666;28;20316;-66
2023/09/05 08:33:22;;;;;;;3.10;2.90;;;;;;;22.06;71.55;102223.34;6196537;28;20264;-67
2023/09/05 08:36:45;;;;;;;7.75;4.32;;;;;;;22.21;70.27;102210.56;6201166;28;20303;-67
2023/09/05 08:40:07;;;;;;;5.13;3.28;;;;;;;22.39;69.64;102213.03;6201031;28;20255;-67
2023/09/05 08:43:30;;;;;;;3.33;2.80;;;;;;;22.31;69.56;102209.47;6199322;28;20781;-66
2023/09/05 08:46:51;;;;;;;2.83;2.60;;;;;;;22.44;69.68;102209.75;6187757;28;20248;-67
2023/09/05 08:50:13;;;;;;;7.60;3.60;;;;;;;22.69;69.00;102216.84;6191463;28;20253;-67
2023/09/05 08:53:41;;;;;;;3.28;2.72;;;;;;;22.81;68.60;102205.22;6201112;28;20241;-68
2023/09/05 08:57:05;;;;;;;3.65;2.05;;;;;;;22.64;68.42;102211.88;6196576;28;20235;-68
2023/09/05 09:00:28;;;;;;;4.25;2.95;;;;;;;22.63;68.90;102201.94;6199795;28;20721;-67
2023/09/05 09:03:49;;;;;;;3.50;3.00;;;;;;;22.55;68.67;102215.69;6180555;28;20252;-68
2023/09/05 09:07:10;;;;;;;4.32;2.70;;;;;;;22.67;69.25;102202.41;6172611;28;20230;-67
2023/09/05 09:10:31;;;;;;;2.72;2.53;;;;;;;23.02;68.21;102204.53;6197318;28;20265;-67
2023/09/05 09:13:59;;;;;;;2.80;2.40;;;;;;;22.89;67.33;102201.56;6200429;28;20668;-66
2023/09/05 09:17:23;;;;;;;2.70;2.50;;;;;;;22.99;67.29;102210.41;6196045;28;20228;-68
2023/09/05 09:20:45;;;;;;;4.07;3.28;;;;;;;23.43;66.69;102203.16;6189456;28;20229;-67
2023/09/05 09:24:09;;;;;;;4.20;2.88;;;;;;;23.45;65.77;102206.56;6195856;28;20592;-67
2023/09/05 09:27:31;;;;;;;4.78;3.47;;;;;;;23.17;67.17;102199.94;6197018;28;20614;-68
2023/09/05 09:31:01;;;;;;;3.72;2.70;;;;;;;23.75;65.71;102197.28;6197418;28;20237;-67
2023/09/05 09:34:24;;;;;;;4.50;2.35;;;;;;;23.87;65.39;102196.78;6199693;28;20260;-68
2023/09/05 09:37:46;;;;;;;3.70;2.45;;;;;;;24.18;64.30;102192.81;6200737;28;20252;-67
2023/09/05 09:41:09;;;;;;;5.20;3.22;;;;;;;24.37;64.05;102178.41;6192564;28;20240;-68
2023/09/05 09:44:32;;;;;;;3.42;3.13;;;;;;;24.68;63.03;102177.28;6202871;28;20497;-67
2023/09/05 09:47:57;;;;;;;4.28;3.33;;;;;;;24.95;62.85;102180.09;6194625;28;20249;-68
2023/09/05 09:51:23;;;;;;;4.28;2.58;;;;;;;24.68;61.58;102178.09;6182993;28;20646;-68
2023/09/05 09:54:45;;;;;;;6.10;2.55;;;;;;;24.18;62.83;102173.50;6192575;28;20319;-66
2023/09/05 09:58:10;;;;;;;5.70;3.35;;;;;;;24.34;63.64;102169.69;6197734;28;20237;-68
2023/09/05 10:01:32;;;;;;;4.30;2.55;;;;;;;24.61;62.68;102164.25;6190838;28;20237;-69
2023/09/05 10:04:54;;;;;;;3.65;2.63;;;;;;;25.27;63.45;102164.88;6197883;28;21808;-68
2023/09/05 10:08:17;;;;;;;5.65;4.35;;;;;;;25.64;62.02;102164.53;6182867;28;20232;-68
2023/09/05 10:11:38;;;;;;;6.10;3.13;;;;;;;25.43;60.73;102172.88;6190073;28;20253;-69
2023/09/05 10:15:04;;;;;;;2.63;2.05;;;;;;;25.84;59.53;102167.41;6197753;28;20492;-68
2023/09/05 10:18:25;;;;;;;6.03;3.15;;;;;;;26.07;58.92;102168.84;6199490;28;20233;-68
2023/09/05 10:21:47;;;;;;;3.00;2.65;;;;;;;25.18;60.01;102168.81;6203403;28;20308;-68
2023/09/05 10:25:12;;;;;;;2.55;2.05;;;;;;;26.25;59.86;102165.47;6199785;28;20562;-68
2023/09/05 10:28:33;;;;;;;3.72;2.13;;;;;;;26.25;57.73;102168.25;6198029;28;20611;-68
2023/09/05 10:31:54;;;;;;;2.42;2.20;;;;;;;27.30;56.28;102171.19;6193447;28;20233;-67
2023/09/05 10:35:18;;;;;;;4.80;2.35;;;;;;;27.85;55.24;102162.34;6183657;28;20547;-68
2023/09/05 10:38:39;;;;;;;5.45;1.73;;;;;;;27.82;54.63;102150.84;6201771;28;20233;-67
2023/09/05 10:42:02;;;;;;;2.15;1.77;;;;;;;27.84;55.48;102140.41;6204717;28;20278;-67
2023/09/05 10:45:31;;;;;;;2.67;2.20;;;;;;;27.49;54.68;102134.34;6201718;28;20315;-68
2023/09/05 10:49:10;;;;;;;3.10;2.80;;;;;;;27.64;54.22;102127.44;6199445;28;20611;-68
2023/09/05 10:52:32;;;;;;;4.40;3.90;;;;;;;28.73;53.63;102128.22;6202899;28;20237;-67
2023/09/05 10:55:54;;;;;;;3.17;2.67;;;;;;;28.46;52.76;102141.41;6203303;28;20233;-68
2023/09/05 10:59:26;;;;;;;3.40;1.90;;;;;;;28.29;52.84;102128.25;6196748;28;20234;-68
2023/09/05 11:02:49;;;;;;;2.28;1.98;;;;;;;28.58;51.22;102133.22;6199195;28;20662;-67
2023/09/05 11:06:16;;;;;;;2.40;1.85;;;;;;;28.89;50.61;102126.81;6202167;28;20221;-68
2023/09/05 11:09:41;;;;;;;2.20;1.95;;;;;;;29.37;51.12;102130.69;6195209;28;20260;-68
2023/09/05 11:13:11;;;;;;;4.55;3.00;;;;;;;29.41;49.17;102120.81;6182686;28;20237;-67
2023/09/05 11:16:46;;;;;;;2.80;1.80;;;;;;;30.15;47.82;102114.13;6184251;28;20626;-67
2023/09/05 11:20:09;;;;;;;3.05;2.50;;;;;;;31.63;45.16;102111.06;6176767;28;20234;-67
2023/09/05 11:23:30;;;;;;;2.72;1.48;;;;;;;35.71;38.00;102103.72;6184985;28;20846;-68
2023/09/05 11:26:51;;;;;;;3.85;2.50;;;;;;;38.07;35.77;102102.09;6203120;28;20237;-68
2023/09/05 11:30:16;;;;;;;3.03;1.67;;;;;;;37.82;34.82;102099.41;6197838;28;20233;-68
2023/09/05 11:33:38;;;;;;;1.98;1.60;;;;;;;39.78;33.28;102095.03;6198039;28;20237;-68
2023/09/05 11:37:00;;;;;;;2.55;2.22;;;;;;;38.79;33.56;102090.94;6190132;28;20232;-68
2023/09/05 11:40:25;;;;;;;3.33;1.88;;;;;;;39.91;32.40;102094.25;6197923;28;20233;-68
2023/09/05 11:43:46;;;;;;;3.35;1.85;;;;;;;39.55;32.60;102093.03;6196398;28;20324;-67
2023/09/05 11:47:08;;;;;;;5.70;2.08;;;;;;;40.06;31.62;102087.59;6197137;28;20803;-67
2023/09/05 11:50:31;;;;;;;4.28;2.22;;;;;;;40.34;31.75;102095.09;6193863;28;20237;-67
2023/09/05 11:53:52;;;;;;;2.35;1.92;;;;;;;41.39;30.53;102087.66;6197565;28;20694;-68
2023/09/05 11:57:13;;;;;;;2.60;1.80;;;;;;;42.22;29.98;102097.84;6196916;28;20343;-68
2023/09/05 12:00:41;;;;;;;1.67;1.30;;;;;;;42.64;29.66;102093.72;6202967;28;20239;-68
2023/09/05 12:04:03;;;;;;;1.52;1.33;;;;;;;41.67;29.74;102091.38;6198796;28;20241;-68
2023/09/05 12:07:26;;;;;;;2.25;1.40;;;;;;;40.79;31.03;102096.38;6200661;28;20233;-67
2023/09/05 12:10:51;;;;;;;4.13;1.40;;;;;;;41.38;30.19;102090.81;6191054;28;20237;-67
2023/09/05 12:14:12;;;;;;;1.52;1.20;;;;;;;42.66;30.06;102092.25;6199536;28;20615;-68
2023/09/05 12:17:33;;;;;;;1.27;1.17;;;;;;;43.46;28.93;102094.94;6204579;28;20236;-67
2023/09/05 12:21:00;;;;;;;1.20;1.10;;;;;;;42.32;28.98;102097.59;6201275;28;20304;-68
2023/09/05 12:24:24;;;;;;;3.10;1.23;;;;;;;42.52;28.86;102096.31;6191167;28;20323;-67
2023/09/05 12:27:47;;;;;;;1.13;1.08;;;;;;;41.14;30.42;102078.81;6199529;28;20229;-68
2023/09/05 12:31:10;;;;;;;1.02;0.93;;;;;;;42.07;28.72;102061.31;6200003;28;20323;-67
2023/09/05 12:34:31;;;;;;;1.90;1.30;;;;;;;42.86;29.26;102059.66;6185143;28;20236;-67
2023/09/05 12:37:52;;;;;;;1.88;1.02;;;;;;;43.04;29.28;102055.75;6194168;28;20232;-68
2023/09/05 12:41:16;;;;;;;4.55;1.25;;;;;;;42.74;28.74;102054.56;6196132;28;20256;-68
2023/09/05 12:44:37;;;;;;;1.58;1.48;;;;;;;42.27;29.21;102054.34;6194641;28;20241;-68
2023/09/05 12:47:58;;;;;;;3.95;2.08;;;;;;;43.34;29.16;102049.25;6196288;28;21632;-69
2023/09/05 12:51:19;;;;;;;0.82;0.82;;;;;;;42.43;29.18;102042.28;6190256;28;20237;-68
2023/09/05 12:54:44;;;;;;;2.15;1.65;;;;;;;42.41;28.92;102036.09;6194973;28;20237;-67
2023/09/05 12:58:09;;;;;;;2.25;1.42;;;;;;;40.36;30.29;102036.25;6194810;28;20240;-68
2023/09/05 13:01:30;;;;;;;1.58;1.30;;;;;;;42.67;29.05;102041.97;6176474;28;20226;-67
2023/09/05 13:04:51;;;;;;;1.50;1.40;;;;;;;42.39;29.21;102040.41;6200490;28;20232;-68
2023/09/05 13:08:12;;;;;;;1.83;0.93;;;;;;;40.90;29.54;102041.31;6200376;28;20732;-68
2023/09/05 13:11:32;;;;;;;1.48;1.38;;;;;;;41.10;29.69;102030.44;6196896;28;20241;-67
2023/09/05 13:14:55;;;;;;;0.93;0.93;;;;;;;40.80;30.60;102028.16;6200343;28;20256;-68
2023/09/05 13:18:18;;;;;;;3.40;0.98;;;;;;;41.99;29.27;102031.69;6179783;28;20487;-68
2023/09/05 13:21:39;;;;;;;3.17;1.40;;;;;;;40.08;30.68;102023.97;6200333;28;20549;-66
2023/09/05 13:24:59;;;;;;;1.38;1.23;;;;;;;39.56;30.85;102021.28;6200512;28;20233;-67
2023/09/05 13:28:22;;;;;;;2.90;1.00;;;;;;;42.16;29.42;102011.19;6201083;28;20225;-67
2023/09/05 13:31:44;;;;;;;4.57;1.40;;;;;;;42.01;28.32;102017.19;6197948;28;20233;-67
2023/09/05 13:35:08;;;;;;;1.80;1.35;;;;;;;41.86;28.98;102018.38;6193230;28;20871;-67
2023/09/05 13:38:28;;;;;;;2.58;1.20;;;;;;;42.07;29.29;102016.78;6199600;28;20229;-66
2023/09/05 13:41:49;;;;;;;1.23;0.90;;;;;;;41.50;29.53;102013.78;6198325;28;20615;-67
2023/09/05 13:45:10;;;;;;;1.27;0.98;;;;;;;41.01;29.17;102011.66;6191900;28;20551;-66
2023/09/05 13:48:35;;;;;;;0.93;0.93;;;;;;;40.77;30.27;102005.28;6198077;28;20233;-66
2023/09/05 13:51:55;;;;;;;3.70;1.20;;;;;;;40.96;29.81;102006.94;6200094;28;20658;-67
2023/09/05 13:55:17;;;;;;;1.17;0.95;;;;;;;40.82;29.81;102005.22;6200927;28;20240;-67
2023/09/05 13:58:38;;;;;;;4.55;2.20;;;;;;;41.13;30.12;102006.31;6197016;28;20233;-67
2023/09/05 14:01:59;;;;;;;3.03;2.80;;;;;;;41.72;29.40;102002.56;6189535;28;20271;-67
2023/09/05 14:05:21;;;;;;;1.05;1.05;;;;;;;41.94;28.95;101994.94;6196431;28;20225;-68
2023/09/05 14:08:42;;;;;;;1.90;1.05;;;;;;;40.51;29.78;101991.63;6199405;28;20267;-67
2023/09/05 14:12:04;;;;;;;2.47;1.10;;;;;;;38.14;32.86;101985.09;6196914;28;20228;-67
2023/09/05 14:15:24;;;;;;;1.75;1.10;;;;;;;39.20;32.13;101981.31;6197432;28;20233;-67
2023/09/05 14:18:45;;;;;;;8.85;2.17;;;;;;;38.61;32.68;101978.81;6202123;28;20736;-67
2023/09/05 14:22:08;;;;;;;1.30;1.20;;;;;;;39.49;32.09;101972.78;6193881;28;20697;-68
2023/09/05 14:25:29;;;;;;;1.38;1.20;;;;;;;40.41;31.76;101977.63;6199049;28;20249;-67
2023/09/05 14:28:50;;;;;;;1.05;1.00;;;;;;;39.71;31.06;101973.91;6175540;28;20233;-67
2023/09/05 14:32:11;;;;;;;1.15;0.82;;;;;;;38.46;32.44;101973.31;6184096;28;20245;-67
2023/09/05 14:35:32;;;;;;;1.38;1.27;;;;;;;38.55;32.71;101962.25;6197537;28;20234;-67
2023/09/05 14:38:54;;;;;;;1.17;1.10;;;;;;;36.19;35.03;101958.38;6178115;28;20317;-67
2023/09/05 14:42:15;;;;;;;3.13;2.80;;;;;;;36.51;35.30;101965.41;6194684;28;20236;-67
2023/09/05 14:45:36;;;;;;;1.55;1.30;;;;;;;36.01;36.85;101971.00;6192770;28;20232;-68
2023/09/05 14:48:57;;;;;;;0.70;0.70;;;;;;;35.58;35.78;101961.03;6198290;28;20237;-67
2023/09/05 14:52:23;;;;;;;1.15;0.90;;;;;;;34.80;37.36;101953.59;6194456;28;20687;-67
2023/09/05 14:55:45;;;;;;;8.10;1.30;;;;;;;34.58;38.04;101955.69;6193992;28;20236;-66
2023/09/05 14:59:05;;;;;;;0.90;0.80;;;;;;;34.10;38.76;101955.81;6201939;28;20617;-67
2023/09/05 15:02:26;;;;;;;6.25;5.65;;;;;;;34.68;38.69;101954.91;6193499;28;20238;-67
2023/09/05 15:05:47;;;;;;;2.55;1.58;;;;;;;34.94;38.86;101951.16;6191035;28;20321;-67
2023/09/05 15:09:08;;;;;;;1.45;1.35;;;;;;;33.56;39.41;101950.22;6197324;28;20348;-67
2023/09/05 15:12:31;;;;;;;3.83;3.53;;;;;;;34.44;38.64;101940.44;6195906;28;20249;-67
2023/09/05 15:15:51;;;;;;;1.63;1.35;;;;;;;34.34;38.85;101941.19;6198203;28;20329;-68
2023/09/05 15:19:12;;;;;;;1.27;1.00;;;;;;;33.81;39.04;101941.25;6198107;28;20237;-67
2023/09/05 15:22:33;;;;;;;1.23;1.13;;;;;;;34.19;39.31;101943.84;6189701;28;20273;-67
2023/09/05 15:25:55;;;;;;;1.60;1.08;;;;;;;34.71;38.99;101938.41;6199084;28;20261;-67
2023/09/05 15:29:18;;;;;;;1.58;1.48;;;;;;;34.10;39.09;101939.03;6187930;28;20237;-67
2023/09/05 15:32:41;;;;;;;2.55;1.45;;;;;;;33.88;39.40;101933.44;6187923;28;20237;-67
2023/09/05 15:36:02;;;;;;;1.13;0.93;;;;;;;34.07;39.13;101942.38;6190616;28;20244;-67
2023/09/05 15:39:23;;;;;;;2.05;1.38;;;;;;;34.22;38.51;101925.69;6177012;28;20237;-68